createdAt,value
2023-02-18T00:02:04.331Z,22.70
2023-02-18T00:04:35.138Z,22.70
2023-02-18T00:07:05.050Z,22.69
2023-02-18T00:09:37.225Z,22.68
2023-02-18T00:12:09.945Z,22.68
2023-02-18T00:14:40.175Z,22.67
2023-02-18T00:17:10.062Z,22.67
2023-02-18T00:19:39.922Z,22.67
2023-02-18T00:22:09.912Z,22.67
2023-02-18T00:24:42.552Z,22.66
2023-02-18T00:27:12.418Z,22.65
2023-02-18T00:29:43.696Z,22.63
2023-02-18T00:32:13.696Z,22.61
2023-02-18T00:34:52.005Z,22.61
2023-02-18T00:37:21.985Z,22.58
2023-02-18T00:39:51.823Z,22.57
2023-02-18T00:42:21.676Z,22.57
2023-02-18T00:44:53.927Z,22.56
2023-02-18T00:47:25.304Z,22.55
2023-02-18T00:49:55.131Z,22.55
2023-02-18T00:52:27.457Z,22.55
2023-02-18T00:55:01.606Z,22.55
2023-02-18T00:57:32.276Z,22.54
2023-02-18T01:00:04.674Z,22.53
2023-02-18T01:02:34.569Z,22.52
2023-02-18T01:05:04.653Z,22.50
2023-02-18T01:07:34.720Z,22.49
2023-02-18T01:10:07.170Z,22.48
2023-02-18T01:12:37.134Z,22.47
2023-02-18T01:15:08.628Z,22.46
2023-02-18T01:17:38.487Z,22.45
2023-02-18T01:20:09.265Z,22.47
2023-02-18T01:22:40.529Z,22.49
2023-02-18T01:25:10.577Z,22.49
2023-02-18T01:27:40.514Z,22.51
2023-02-18T01:30:14.338Z,22.50
2023-02-18T01:32:44.459Z,22.49
2023-02-18T01:35:15.693Z,22.50
2023-02-18T01:37:46.241Z,22.52
2023-02-18T01:40:17.238Z,22.52
2023-02-18T01:42:49.384Z,22.51
2023-02-18T01:45:40.103Z,22.54
2023-02-18T01:48:23.971Z,22.54
2023-02-18T01:51:17.977Z,22.55
2023-02-18T01:54:00.108Z,22.59
2023-02-18T01:56:37.291Z,22.61
2023-02-18T01:59:10.416Z,22.62
2023-02-18T02:01:42.750Z,22.62
2023-02-18T02:04:15.042Z,22.64
2023-02-18T02:06:45.754Z,22.64
2023-02-18T02:09:22.680Z,22.65
2023-02-18T02:11:56.066Z,22.65
2023-02-18T02:18:02.685Z,22.67
2023-02-18T02:20:59.143Z,22.71
2023-02-18T02:23:46.416Z,22.72
2023-02-18T02:26:36.645Z,22.73
2023-02-18T02:29:25.119Z,22.71
2023-02-18T02:32:21.309Z,22.70
2023-02-18T02:34:59.275Z,22.69
2023-02-18T02:37:57.503Z,22.69
2023-02-18T02:40:52.859Z,22.70
2023-02-18T02:43:44.314Z,22.71
2023-02-18T02:46:22.488Z,22.70
2023-02-18T02:49:06.930Z,22.71
2023-02-18T02:51:47.481Z,22.67
2023-02-18T02:54:22.443Z,22.64
2023-02-18T02:56:55.360Z,22.64
2023-02-18T02:59:34.590Z,22.64
2023-02-18T03:02:31.710Z,22.64
2023-02-18T03:05:14.974Z,22.63
2023-02-18T03:07:59.532Z,22.61
2023-02-18T03:10:56.168Z,22.59
2023-02-18T03:13:58.541Z,22.53
2023-02-18T03:16:41.993Z,22.53
2023-02-18T03:19:34.696Z,22.53
2023-02-18T03:22:24.356Z,22.55
2023-02-18T03:24:56.786Z,22.54
2023-02-18T03:27:29.820Z,22.52
2023-02-18T03:30:10.397Z,22.48
2023-02-18T03:32:40.333Z,22.44
2023-02-18T03:35:21.888Z,22.45
2023-02-18T03:38:07.880Z,22.45
2023-02-18T03:40:43.045Z,22.46
2023-02-18T03:43:26.854Z,22.47
2023-02-18T03:45:57.644Z,22.48
2023-02-18T03:48:29.163Z,22.47
2023-02-18T03:51:03.192Z,22.44
2023-02-18T03:53:34.508Z,22.44
2023-02-18T03:56:13.015Z,22.45
2023-02-18T03:58:48.967Z,22.46
2023-02-18T04:01:22.071Z,22.49
2023-02-18T04:03:52.057Z,22.50
2023-02-18T04:06:22.936Z,22.50
2023-02-18T04:09:02.616Z,22.49
2023-02-18T04:11:35.026Z,22.48
2023-02-18T04:14:21.675Z,22.46
2023-02-18T04:16:55.278Z,22.47
2023-02-18T04:19:25.108Z,22.45
2023-02-18T04:21:56.571Z,22.44
2023-02-18T04:24:28.358Z,22.44
2023-02-18T04:27:05.905Z,22.40
2023-02-18T04:29:38.126Z,22.39
2023-02-18T04:32:10.510Z,22.35
2023-02-18T04:34:40.464Z,22.34
2023-02-18T04:37:12.657Z,22.33
2023-02-18T04:39:42.673Z,22.31
2023-02-18T04:42:12.546Z,22.29
2023-02-18T04:44:42.401Z,22.24
2023-02-18T04:47:14.409Z,22.23
2023-02-18T04:49:44.294Z,22.17
2023-02-18T04:52:14.172Z,22.17
2023-02-18T04:54:44.214Z,22.14
2023-02-18T04:57:14.133Z,22.13
2023-02-18T04:59:44.018Z,22.10
2023-02-18T05:02:13.941Z,22.09
2023-02-18T05:04:45.906Z,22.06
2023-02-18T05:07:20.331Z,22.03
2023-02-18T05:09:50.296Z,22.00
2023-02-18T05:12:20.147Z,21.99
2023-02-18T05:14:50.777Z,21.97
2023-02-18T05:17:20.725Z,21.96
2023-02-18T05:19:50.600Z,21.91
2023-02-18T05:22:21.893Z,21.88
2023-02-18T05:24:53.426Z,21.87
2023-02-18T05:27:23.836Z,21.86
2023-02-18T05:29:54.001Z,21.84
2023-02-18T05:32:23.921Z,21.83
2023-02-18T05:34:55.018Z,21.80
2023-02-18T05:37:25.531Z,21.78
2023-02-18T05:39:56.240Z,21.76
2023-02-18T05:42:27.465Z,21.74
2023-02-18T05:44:58.665Z,21.72
2023-02-18T05:47:28.783Z,21.71
2023-02-18T05:49:59.798Z,21.66
2023-02-18T05:52:30.872Z,21.66
2023-02-18T05:55:01.915Z,21.64
2023-02-18T05:57:31.910Z,21.62
2023-02-18T06:00:02.655Z,21.58
2023-02-18T06:02:34.542Z,21.56
2023-02-18T06:05:04.454Z,21.56
2023-02-18T06:07:34.305Z,21.52
2023-02-18T06:10:04.245Z,21.49
2023-02-18T06:12:34.181Z,21.45
2023-02-18T06:15:06.280Z,21.43
2023-02-18T06:17:36.202Z,21.41
2023-02-18T06:20:06.183Z,21.37
2023-02-18T06:22:36.042Z,21.34
2023-02-18T06:25:05.953Z,21.31
2023-02-18T06:27:35.819Z,21.28
2023-02-18T06:30:05.856Z,21.24
2023-02-18T06:32:35.827Z,21.24
2023-02-18T06:35:05.649Z,21.19
2023-02-18T06:37:35.976Z,21.17
2023-02-18T06:40:06.073Z,21.12
2023-02-18T06:42:36.078Z,21.12
2023-02-18T06:45:07.439Z,21.09
2023-02-18T06:47:37.369Z,21.06
2023-02-18T06:50:07.971Z,21.03
2023-02-18T06:52:40.997Z,21.01
2023-02-18T06:55:10.965Z,20.99
2023-02-18T06:57:40.770Z,20.97
2023-02-18T07:00:11.312Z,20.94
2023-02-18T07:02:42.653Z,20.93
2023-02-18T07:05:12.507Z,20.89
2023-02-18T07:07:42.347Z,20.86
2023-02-18T07:10:12.472Z,20.84
2023-02-18T07:12:42.333Z,20.81
2023-02-18T07:15:12.480Z,20.78
2023-02-18T07:17:42.357Z,20.75
2023-02-18T07:20:12.294Z,20.75
2023-02-18T07:22:42.141Z,20.72
2023-02-18T07:25:12.075Z,20.71
2023-02-18T07:27:41.927Z,20.67
2023-02-18T07:30:12.107Z,20.64
2023-02-18T07:32:42.069Z,20.60
2023-02-18T07:35:12.849Z,20.57
2023-02-18T07:37:46.149Z,20.55
2023-02-18T07:40:17.167Z,20.53
2023-02-18T07:42:47.005Z,20.51
2023-02-18T07:45:16.866Z,20.49
2023-02-18T07:47:47.060Z,20.45
2023-02-18T07:50:17.126Z,20.41
2023-02-18T07:52:47.000Z,20.42
2023-02-18T07:55:16.977Z,20.43
2023-02-18T07:57:58.801Z,20.43
2023-02-18T08:00:29.127Z,20.45
2023-02-18T08:03:00.253Z,20.48
2023-02-18T08:05:31.299Z,20.47
2023-02-18T08:08:02.300Z,20.48
2023-02-18T08:10:32.418Z,20.52
2023-02-18T08:13:03.409Z,20.53
2023-02-18T08:15:33.429Z,20.52
2023-02-18T08:18:03.678Z,20.52
2023-02-18T08:20:33.535Z,20.55
2023-02-18T08:23:03.417Z,20.53
2023-02-18T08:25:33.617Z,20.53
2023-02-18T08:28:03.463Z,20.52
2023-02-18T08:30:33.580Z,20.52
2023-02-18T08:33:04.051Z,20.49
2023-02-18T08:35:33.889Z,20.51
2023-02-18T08:38:03.752Z,20.48
2023-02-18T08:40:33.654Z,20.47
2023-02-18T08:43:03.511Z,20.47
2023-02-18T08:45:35.797Z,20.46
2023-02-18T08:48:17.766Z,20.44
2023-02-18T08:50:36.824Z,20.43
2023-02-18T08:53:06.742Z,20.43
2023-02-18T08:55:37.918Z,20.38
2023-02-18T08:58:07.916Z,20.36
2023-02-18T09:00:38.031Z,20.35
2023-02-18T09:03:08.027Z,20.36
2023-02-18T09:05:37.872Z,20.35
2023-02-18T09:08:07.775Z,20.34
2023-02-18T09:10:37.659Z,20.33
2023-02-18T09:13:07.508Z,20.33
2023-02-18T09:15:37.564Z,20.33
2023-02-18T09:18:07.543Z,20.34
2023-02-18T09:20:37.384Z,20.36
2023-02-18T09:23:07.427Z,20.40
2023-02-18T09:25:37.350Z,20.41
2023-02-18T09:28:09.347Z,20.42
2023-02-18T09:30:40.811Z,20.44
2023-02-18T09:33:10.756Z,20.45
2023-02-18T09:35:44.255Z,20.47
2023-02-18T09:38:14.516Z,20.48
2023-02-18T09:40:52.381Z,20.51
2023-02-18T09:43:33.593Z,20.54
2023-02-18T09:46:04.373Z,20.55
2023-02-18T09:48:35.328Z,20.56
2023-02-18T09:51:05.162Z,20.58
2023-02-18T09:53:34.980Z,20.59
2023-02-18T09:56:04.872Z,20.62
2023-02-18T09:58:34.815Z,20.63
2023-02-18T10:01:07.738Z,20.65
2023-02-18T10:03:37.897Z,20.66
2023-02-18T10:06:11.547Z,20.68
2023-02-18T10:08:45.743Z,20.71
2023-02-18T10:11:17.780Z,20.72
2023-02-18T10:13:47.760Z,20.73
2023-02-18T10:16:19.638Z,20.73
2023-02-18T10:18:53.711Z,20.75
2023-02-18T10:21:26.391Z,20.76
2023-02-18T10:24:07.693Z,20.78
2023-02-18T10:26:39.235Z,20.80
2023-02-18T10:29:18.694Z,20.82
2023-02-18T10:32:03.170Z,20.84
2023-02-18T10:34:43.377Z,20.86
2023-02-18T10:37:24.974Z,20.87
2023-02-18T10:40:03.121Z,20.88
2023-02-18T10:42:57.123Z,20.88
2023-02-18T10:45:32.492Z,20.87
2023-02-18T10:48:11.159Z,20.89
2023-02-18T10:50:42.929Z,20.78
2023-02-18T10:53:27.174Z,20.90
2023-02-18T10:55:57.631Z,20.93
2023-02-18T10:58:47.784Z,20.96
2023-02-18T11:01:19.412Z,21.00
2023-02-18T11:03:50.606Z,21.01
2023-02-18T11:06:29.285Z,21.03
2023-02-18T11:08:59.654Z,21.03
2023-02-18T11:11:38.131Z,21.06
2023-02-18T11:14:09.145Z,21.09
2023-02-18T11:16:41.351Z,21.12
2023-02-18T11:19:39.240Z,21.15
2023-02-18T11:22:17.944Z,21.17
2023-02-18T11:24:49.150Z,21.18
2023-02-18T11:27:30.667Z,21.18
2023-02-18T11:30:06.078Z,21.21
2023-02-18T11:32:37.074Z,21.23
2023-02-18T11:35:07.206Z,21.30
2023-02-18T11:37:37.262Z,21.33
2023-02-18T11:40:07.863Z,21.36
2023-02-18T11:42:37.801Z,21.38
2023-02-18T11:45:08.006Z,21.41
2023-02-18T11:47:38.462Z,21.42
2023-02-18T11:50:14.389Z,21.46
2023-02-18T11:52:46.734Z,21.53
2023-02-18T11:55:33.445Z,21.57
2023-02-18T11:58:06.276Z,21.61
2023-02-18T12:00:47.001Z,21.64
2023-02-18T12:03:40.556Z,21.66
2023-02-18T12:06:22.444Z,21.72
2023-02-18T12:08:54.517Z,21.74
2023-02-18T12:11:29.941Z,21.78
2023-02-18T12:14:00.888Z,21.79
2023-02-18T12:16:48.985Z,21.81
2023-02-18T12:19:32.534Z,21.82
2023-02-18T12:22:26.788Z,21.83
2023-02-18T12:25:24.895Z,21.85
2023-02-18T12:28:15.478Z,21.86
2023-02-18T12:31:02.957Z,21.84
2023-02-18T12:33:53.865Z,21.79
2023-02-18T12:36:35.135Z,21.79
2023-02-18T12:39:19.736Z,21.80
2023-02-18T12:41:54.974Z,21.80
2023-02-18T12:44:33.152Z,21.80
2023-02-18T12:47:25.776Z,21.82
2023-02-18T12:50:04.174Z,21.83
2023-02-18T12:52:52.483Z,21.83
2023-02-18T12:55:25.065Z,21.80
2023-02-18T12:58:00.245Z,21.80
2023-02-18T13:00:48.803Z,21.81
2023-02-18T13:03:47.128Z,21.83
2023-02-18T13:06:37.916Z,21.86
2023-02-18T13:09:27.076Z,21.87
2023-02-18T13:12:18.071Z,21.88
2023-02-18T13:15:05.456Z,21.91
2023-02-18T13:17:37.244Z,21.91
2023-02-18T13:20:18.642Z,21.94
2023-02-18T13:22:49.906Z,21.95
2023-02-18T13:25:19.986Z,21.99
2023-02-18T13:28:08.993Z,22.01
2023-02-18T13:30:59.769Z,22.02
2023-02-18T13:33:40.713Z,22.03
2023-02-18T13:36:42.036Z,22.03
2023-02-18T13:39:12.168Z,22.04
2023-02-18T13:41:43.213Z,22.07
2023-02-18T13:44:27.793Z,22.08
2023-02-18T13:46:58.546Z,22.10
2023-02-18T13:49:31.118Z,22.09
2023-02-18T13:52:01.976Z,22.11
2023-02-18T13:54:34.024Z,22.12
2023-02-18T13:57:08.821Z,22.12
2023-02-18T13:59:40.603Z,22.14
2023-02-18T14:02:25.561Z,22.17
2023-02-18T14:05:00.680Z,22.20
2023-02-18T14:07:45.479Z,22.22
2023-02-18T14:10:20.608Z,22.23
2023-02-18T14:13:02.171Z,22.25
2023-02-18T14:15:35.076Z,22.25
2023-02-18T14:18:19.486Z,22.26
2023-02-18T14:20:51.612Z,22.28
2023-02-18T14:23:24.229Z,22.31
2023-02-18T14:26:19.589Z,22.29
2023-02-18T14:28:58.040Z,22.31
2023-02-18T14:31:36.811Z,22.33
2023-02-18T14:34:24.474Z,22.33
2023-02-18T14:37:22.489Z,22.35
2023-02-18T14:40:01.121Z,22.37
2023-02-18T14:42:50.077Z,22.39
2023-02-18T14:45:55.755Z,22.40
2023-02-18T14:49:01.308Z,22.41
2023-02-18T14:51:31.268Z,22.43
2023-02-18T14:54:07.282Z,22.43
2023-02-18T14:56:42.757Z,22.44
2023-02-18T14:59:14.989Z,22.45
2023-02-18T15:01:44.934Z,22.49
2023-02-18T15:04:15.825Z,22.50
2023-02-18T15:06:45.656Z,22.51
2023-02-18T15:09:23.094Z,22.51
2023-02-18T15:11:58.900Z,22.51
2023-02-18T15:14:31.192Z,22.50
2023-02-18T15:17:01.376Z,22.50
2023-02-18T15:19:34.029Z,22.50
2023-02-18T15:22:04.494Z,22.53
2023-02-18T15:24:38.554Z,22.54
2023-02-18T15:27:22.126Z,22.55
2023-02-18T15:29:53.810Z,22.53
2023-02-18T15:32:25.974Z,22.52
2023-02-18T15:35:05.385Z,22.50
2023-02-18T15:37:35.224Z,22.51
2023-02-18T15:40:05.514Z,22.52
2023-02-18T15:42:37.554Z,22.52
2023-02-18T15:45:23.670Z,22.52
2023-02-18T15:47:55.829Z,22.52
2023-02-18T15:50:37.032Z,22.52
2023-02-18T15:53:14.598Z,22.50
2023-02-18T15:55:45.401Z,22.48
2023-02-18T15:58:20.362Z,22.46
2023-02-18T16:00:54.841Z,22.46
2023-02-18T16:03:26.547Z,22.47
2023-02-18T16:06:14.967Z,22.48
2023-02-18T16:08:44.794Z,22.47
2023-02-18T16:11:14.957Z,22.48
2023-02-18T16:13:50.885Z,22.46
2023-02-18T16:16:26.607Z,22.45
2023-02-18T16:18:56.630Z,22.44
2023-02-18T16:21:35.002Z,22.43
2023-02-18T16:24:04.948Z,22.33
2023-02-18T16:26:44.072Z,22.44
2023-02-18T16:29:20.362Z,22.43
2023-02-18T16:31:50.274Z,22.43
2023-02-18T16:34:20.168Z,22.41
2023-02-18T16:37:07.668Z,22.40
2023-02-18T16:39:37.503Z,22.39
2023-02-18T16:42:12.104Z,22.39
2023-02-18T16:44:42.037Z,22.39
2023-02-18T16:47:13.665Z,22.38
2023-02-18T16:49:43.575Z,22.38
2023-02-18T16:52:13.426Z,22.37
2023-02-18T16:54:43.241Z,22.35
2023-02-18T16:57:15.803Z,22.35
2023-02-18T16:59:45.639Z,22.34
2023-02-18T17:02:20.489Z,22.33
2023-02-18T17:04:52.438Z,22.32
2023-02-18T17:07:22.246Z,22.32
2023-02-18T17:09:52.084Z,22.32
2023-02-18T17:12:21.965Z,22.30
2023-02-18T17:14:51.973Z,22.30
2023-02-18T17:17:23.413Z,22.30
2023-02-18T17:19:53.282Z,22.29
2023-02-18T17:22:23.116Z,22.28
2023-02-18T17:24:52.934Z,22.28
2023-02-18T17:27:22.827Z,22.28
2023-02-18T17:29:52.707Z,22.28
2023-02-18T17:32:22.502Z,22.27
2023-02-18T17:34:52.402Z,22.27
2023-02-18T17:37:22.226Z,22.25
2023-02-18T17:39:52.063Z,22.26
2023-02-18T17:42:24.366Z,22.29
2023-02-18T17:44:54.198Z,22.31
2023-02-18T17:47:24.022Z,22.33
2023-02-18T17:49:53.904Z,22.32
2023-02-18T17:52:31.557Z,22.34
2023-02-18T17:55:01.795Z,22.34
2023-02-18T17:57:32.941Z,22.34
2023-02-18T18:00:04.843Z,22.37
2023-02-18T18:02:34.997Z,22.40
2023-02-18T18:05:05.056Z,22.42
2023-02-18T18:07:34.981Z,22.42
2023-02-18T18:10:05.003Z,22.43
2023-02-18T18:12:35.065Z,22.44
2023-02-18T18:15:05.403Z,22.45
2023-02-18T18:17:35.213Z,22.45
2023-02-18T18:20:05.141Z,22.48
2023-02-18T18:22:35.035Z,22.51
2023-02-18T18:25:06.563Z,22.53
2023-02-18T18:27:36.576Z,22.54
2023-02-18T18:30:06.686Z,22.56
2023-02-18T18:32:36.587Z,22.58
2023-02-18T18:35:06.630Z,22.58
2023-02-18T18:37:36.495Z,22.60
2023-02-18T18:40:06.517Z,22.61
2023-02-18T18:42:36.434Z,22.62
2023-02-18T18:45:06.588Z,22.65
2023-02-18T18:47:36.426Z,22.67
2023-02-18T18:50:06.449Z,22.69
2023-02-18T18:52:36.494Z,22.70
2023-02-18T18:55:06.438Z,22.70
2023-02-18T18:57:36.374Z,22.66
2023-02-18T19:00:06.382Z,22.66
2023-02-18T19:02:36.715Z,22.67
2023-02-18T19:05:06.801Z,22.69
2023-02-18T19:07:36.641Z,22.71
2023-02-18T19:10:06.513Z,22.70
2023-02-18T19:12:37.773Z,22.68
2023-02-18T19:15:07.830Z,22.67
2023-02-18T19:17:37.719Z,22.68
2023-02-18T19:20:08.714Z,22.67
2023-02-18T19:22:38.577Z,22.67
2023-02-18T19:25:08.876Z,22.69
2023-02-18T19:27:42.403Z,22.68
2023-02-18T19:30:20.476Z,22.66
2023-02-18T19:32:50.820Z,22.64
2023-02-18T19:35:20.758Z,22.62
2023-02-18T19:37:52.770Z,22.62
2023-02-18T19:40:24.001Z,22.63
2023-02-18T19:42:53.830Z,22.65
2023-02-18T19:45:23.669Z,22.65
2023-02-18T19:48:01.777Z,22.63
2023-02-18T19:50:34.701Z,22.60
2023-02-18T19:53:05.241Z,22.56
2023-02-18T19:55:35.296Z,22.55
2023-02-18T19:58:05.252Z,22.56
2023-02-18T20:00:35.277Z,22.58
2023-02-18T20:03:07.489Z,22.59
2023-02-18T20:05:39.070Z,22.57
2023-02-18T20:08:08.926Z,22.56
2023-02-18T20:10:39.133Z,22.53
2023-02-18T20:13:10.215Z,22.52
2023-02-18T20:15:44.865Z,22.53
2023-02-18T20:18:14.842Z,22.54
2023-02-18T20:20:51.715Z,22.54
2023-02-18T20:23:21.586Z,22.53
2023-02-18T20:25:51.506Z,22.51
2023-02-18T20:28:21.476Z,22.50
2023-02-18T20:30:51.356Z,22.49
2023-02-18T20:33:21.321Z,22.50
2023-02-18T20:35:59.162Z,22.47
2023-02-18T20:38:29.010Z,22.46
2023-02-18T20:41:00.582Z,22.48
2023-02-18T20:43:32.407Z,22.45
2023-02-18T20:46:08.042Z,22.43
2023-02-18T20:48:38.213Z,22.43
2023-02-18T20:51:15.407Z,22.43
2023-02-18T20:53:45.246Z,22.40
2023-02-18T20:56:15.247Z,22.42
2023-02-18T20:58:45.104Z,22.42
2023-02-18T21:01:15.922Z,22.42
2023-02-18T21:03:46.820Z,22.40
2023-02-18T21:06:18.651Z,22.39
2023-02-18T21:08:48.921Z,22.39
2023-02-18T21:11:20.255Z,22.38
2023-02-18T21:13:50.502Z,22.38
2023-02-18T21:16:20.579Z,22.38
2023-02-18T21:18:50.579Z,22.37
2023-02-18T21:21:21.867Z,22.35
2023-02-18T21:23:51.723Z,22.33
2023-02-18T21:26:23.257Z,22.32
2023-02-18T21:28:54.386Z,22.32
2023-02-18T21:31:26.477Z,22.32
2023-02-18T21:33:58.758Z,22.31
2023-02-18T21:36:28.709Z,22.30
2023-02-18T21:38:59.836Z,22.28
2023-02-18T21:41:29.739Z,22.26
2023-02-18T21:43:59.582Z,22.26
2023-02-18T21:46:33.702Z,22.26
2023-02-18T21:49:06.229Z,22.27
2023-02-18T21:51:55.692Z,22.27
2023-02-18T21:54:33.245Z,22.26
2023-02-18T21:57:04.689Z,22.25
2023-02-18T21:59:35.191Z,22.25
2023-02-18T22:02:05.995Z,22.26
2023-02-18T22:04:36.239Z,22.28
2023-02-18T22:07:06.100Z,22.31
2023-02-18T22:09:36.014Z,22.32
2023-02-18T22:12:06.882Z,22.34
2023-02-18T22:14:36.732Z,22.32
2023-02-18T22:17:08.610Z,22.32
2023-02-18T22:19:38.489Z,22.35
2023-02-18T22:22:08.351Z,22.37
2023-02-18T22:24:38.189Z,22.39
2023-02-18T22:27:08.047Z,22.42
2023-02-18T22:29:37.888Z,22.44
2023-02-18T22:32:07.803Z,22.46
2023-02-18T22:34:37.891Z,22.48
2023-02-18T22:37:07.738Z,22.49
2023-02-18T22:39:37.576Z,22.50
2023-02-18T22:42:07.597Z,22.51
2023-02-18T22:44:37.332Z,22.53
2023-02-18T22:47:07.189Z,22.55
2023-02-18T22:49:37.077Z,22.57
2023-02-18T22:52:06.941Z,22.60
2023-02-18T22:54:36.754Z,22.60
2023-02-18T22:57:06.675Z,22.62
2023-02-18T22:59:36.843Z,22.64
2023-02-18T23:02:06.660Z,22.65
2023-02-18T23:04:36.782Z,22.67
2023-02-18T23:07:06.760Z,22.69
2023-02-18T23:09:36.648Z,22.71
2023-02-18T23:12:06.839Z,22.72
2023-02-18T23:14:36.667Z,22.74
2023-02-18T23:17:15.352Z,22.75
2023-02-18T23:19:46.942Z,22.73
2023-02-18T23:22:21.048Z,22.74
2023-02-18T23:24:50.847Z,22.73
2023-02-18T23:27:20.791Z,22.73
2023-02-18T23:29:51.031Z,22.75
2023-02-18T23:32:20.862Z,22.76
2023-02-18T23:34:52.167Z,22.76
2023-02-18T23:37:26.572Z,22.75
2023-02-18T23:39:56.427Z,22.75
2023-02-18T23:42:26.317Z,22.74
2023-02-18T23:44:57.079Z,22.68
2023-02-18T23:47:26.917Z,22.72
2023-02-18T23:49:56.830Z,22.73
2023-02-18T23:52:29.415Z,22.74
2023-02-18T23:54:59.266Z,22.74
2023-02-18T23:57:33.460Z,22.73
